Time;durP1;ratioP1;P1;durP2;ratioP2;P2;SDS_P1;SDS_P2;PMS_P1;PMS_P2;Temp;Humidity;BMP_temperature;BMP_pressure;BME280_temperature;BME280_humidity;BME280_pressure;Samples;Min_cycle;Max_cycle;Signal;HPM_P1;HPM_P2
2023/09/06 00:02:06;;;;;;;7.10;2.70;;;16.90;99.90;;;;;;5157804;27;20410;-74
2023/09/06 00:04:33;;;;;;;3.70;2.70;;;16.80;99.90;;;;;;5157643;27;20091;-74
2023/09/06 00:06:59;;;;;;;5.32;2.97;;;16.70;99.90;;;;;;5157627;27;20054;-73
2023/09/06 00:09:25;;;;;;;3.20;2.33;;;16.70;99.90;;;;;;5157380;27;20043;-73
2023/09/06 00:11:51;;;;;;;4.03;2.88;;;16.60;99.90;;;;;;5157119;27;20103;-74
2023/09/06 00:14:17;;;;;;;4.57;3.03;;;16.60;99.90;;;;;;5151788;27;20039;-74
2023/09/06 00:16:46;;;;;;;3.30;2.75;;;16.60;99.90;;;;;;5145148;27;20082;-74
2023/09/06 00:19:14;;;;;;;3.70;2.88;;;16.60;99.90;;;;;;5151665;27;20053;-74
2023/09/06 00:21:43;;;;;;;3.70;2.90;;;16.60;99.90;;;;;;5139140;27;20123;-74
2023/09/06 00:24:12;;;;;;;3.42;2.67;;;16.70;99.90;;;;;;5136143;27;20051;-74
2023/09/06 00:26:41;;;;;;;4.03;2.85;;;16.70;99.90;;;;;;5118487;27;20100;-74
2023/09/06 00:29:07;;;;;;;5.40;2.63;;;16.80;99.90;;;;;;5117818;27;20059;-73
2023/09/06 00:31:34;;;;;;;4.07;3.00;;;16.80;99.90;;;;;;5147533;27;20372;-74
2023/09/06 00:34:00;;;;;;;3.45;2.60;;;16.70;99.90;;;;;;5143024;27;20043;-74
2023/09/06 00:36:29;;;;;;;4.28;2.80;;;16.80;99.90;;;;;;5156562;27;20038;-73
2023/09/06 00:38:58;;;;;;;3.53;2.70;;;16.80;99.90;;;;;;5154292;27;20047;-74
2023/09/06 00:41:25;;;;;;;5.03;3.20;;;16.90;99.90;;;;;;5156804;27;20039;-74
2023/09/06 00:43:51;;;;;;;8.65;3.13;;;17.00;99.90;;;;;;5156742;27;20047;-74
2023/09/06 00:46:19;;;;;;;4.25;2.95;;;17.10;99.90;;;;;;5154079;27;20390;-74
2023/09/06 00:48:46;;;;;;;4.15;2.65;;;17.20;99.90;;;;;;5135219;27;20058;-73
2023/09/06 00:51:12;;;;;;;3.92;2.75;;;17.30;99.90;;;;;;5117815;27;20042;-74
2023/09/06 00:53:39;;;;;;;5.95;3.00;;;17.40;99.90;;;;;;5117693;27;20051;-74
2023/09/06 00:56:08;;;;;;;4.60;2.90;;;17.50;99.90;;;;;;5135707;27;20096;-73
2023/09/06 00:58:35;;;;;;;4.50;2.80;;;17.60;99.90;;;;;;5135590;27;20620;-74
2023/09/06 01:01:03;;;;;;;4.05;2.58;;;17.60;99.90;;;;;;5135451;27;20054;-74
2023/09/06 01:03:28;;;;;;;3.70;2.70;;;17.70;99.90;;;;;;5139296;27;20406;-74
2023/09/06 01:06:04;;;;;;;3.75;2.90;;;17.70;99.90;;;;;;5137995;27;20057;-74
2023/09/06 01:08:37;;;;;;;4.78;3.17;;;17.70;99.90;;;;;;5156442;27;20039;-74
2023/09/06 01:11:21;;;;;;;4.13;2.92;;;17.60;99.90;;;;;;5156577;27;20086;-74
2023/09/06 01:13:51;;;;;;;5.80;3.22;;;17.60;99.90;;;;;;5138098;27;20478;-74
2023/09/06 01:16:27;;;;;;;3.22;2.60;;;17.60;99.90;;;;;;5156713;27;20038;-74
2023/09/06 01:18:53;;;;;;;3.75;2.65;;;17.50;99.90;;;;;;5138994;27;20102;-73
2023/09/06 01:21:22;;;;;;;3.53;2.83;;;17.40;99.90;;;;;;5156317;27;20038;-74
2023/09/06 01:23:51;;;;;;;4.82;2.78;;;17.30;99.90;;;;;;5156012;27;20042;-74
2023/09/06 01:26:17;;;;;;;4.20;3.00;;;17.20;99.90;;;;;;5155334;27;20043;-74
2023/09/06 01:28:43;;;;;;;4.32;3.25;;;17.10;99.90;;;;;;5137280;27;20398;-73
2023/09/06 01:31:09;;;;;;;3.47;2.90;;;17.10;99.90;;;;;;5137831;27;20050;-74
2023/09/06 01:33:35;;;;;;;4.53;3.35;;;17.00;99.90;;;;;;5120381;27;20066;-74
2023/09/06 01:36:01;;;;;;;4.53;3.22;;;16.90;99.90;;;;;;5155757;27;20046;-74
2023/09/06 01:38:26;;;;;;;4.20;3.22;;;16.90;99.90;;;;;;5154935;27;20065;-74
2023/09/06 01:40:53;;;;;;;4.45;3.20;;;16.90;99.90;;;;;;5155972;27;20049;-74
2023/09/06 01:43:19;;;;;;;4.68;3.10;;;16.90;99.90;;;;;;5155946;27;20038;-74
2023/09/06 01:45:54;;;;;;;4.40;3.53;;;16.90;99.90;;;;;;5149180;27;20394;-74
2023/09/06 01:48:20;;;;;;;3.45;2.83;;;16.80;99.90;;;;;;5139776;27;20114;-74
2023/09/06 01:50:47;;;;;;;3.60;2.90;;;16.80;99.90;;;;;;5153364;27;20047;-73
2023/09/06 01:53:15;;;;;;;4.25;3.20;;;16.90;99.90;;;;;;5152381;27;20510;-74
2023/09/06 01:55:42;;;;;;;4.90;3.40;;;16.90;99.90;;;;;;5116241;27;20055;-74
2023/09/06 01:58:11;;;;;;;5.00;2.95;;;17.00;99.90;;;;;;5134843;27;20077;-74
2023/09/06 02:00:38;;;;;;;3.72;2.88;;;17.10;99.90;;;;;;5146301;27;20038;-74
2023/09/06 02:03:07;;;;;;;3.45;2.78;;;17.10;99.90;;;;;;5119090;27;20439;-74
2023/09/06 02:05:34;;;;;;;5.18;3.30;;;17.10;99.90;;;;;;5155195;27;20410;-73
2023/09/06 02:08:00;;;;;;;4.22;2.88;;;17.10;99.90;;;;;;5146714;27;20082;-73
2023/09/06 02:10:25;;;;;;;6.00;3.40;;;17.10;99.90;;;;;;5134818;27;20054;-73
2023/09/06 02:12:51;;;;;;;4.35;2.58;;;17.10;99.90;;;;;;5116337;27;20070;-74
2023/09/06 02:15:17;;;;;;;4.70;2.80;;;17.10;99.90;;;;;;5134746;27;20050;-74
2023/09/06 02:17:44;;;;;;;3.92;2.70;;;17.10;99.90;;;;;;5134170;27;20043;-73
2023/09/06 02:20:19;;;;;;;4.57;3.15;;;17.10;99.90;;;;;;5134411;27;20547;-73
2023/09/06 02:22:47;;;;;;;4.18;2.60;;;17.00;99.90;;;;;;5099592;27;20051;-73
2023/09/06 02:25:14;;;;;;;3.97;2.92;;;16.90;99.90;;;;;;5116365;27;20047;-73
2023/09/06 02:27:40;;;;;;;4.32;2.78;;;16.90;99.90;;;;;;5134461;27;20095;-73
2023/09/06 02:30:07;;;;;;;3.78;3.00;;;16.80;99.90;;;;;;5134016;28;20495;-73
2023/09/06 02:32:33;;;;;;;4.15;3.03;;;16.70;99.90;;;;;;5134379;28;20054;-73
2023/09/06 02:34:59;;;;;;;4.57;2.88;;;16.80;99.90;;;;;;5154859;27;20046;-73
2023/09/06 02:37:25;;;;;;;3.60;2.83;;;16.80;99.90;;;;;;5134389;27;20054;-73
2023/09/06 02:39:53;;;;;;;5.28;2.80;;;16.80;99.90;;;;;;5115994;28;20044;-73
2023/09/06 02:42:20;;;;;;;4.47;2.90;;;16.70;99.90;;;;;;5133943;28;20418;-72
2023/09/06 02:44:46;;;;;;;4.32;3.00;;;16.70;99.90;;;;;;5134303;28;20073;-73
2023/09/06 02:47:15;;;;;;;4.65;3.08;;;16.70;99.90;;;;;;5133950;28;20509;-73
2023/09/06 02:49:43;;;;;;;4.13;2.90;;;16.70;99.90;;;;;;5134203;27;20130;-74
2023/09/06 02:52:28;;;;;;;4.20;3.10;;;16.70;99.90;;;;;;5120290;27;20062;-74
2023/09/06 02:54:55;;;;;;;3.97;3.05;;;16.70;99.90;;;;;;5119940;27;20116;-73
2023/09/06 02:57:20;;;;;;;3.92;3.20;;;16.70;99.90;;;;;;5138151;27;20035;-73
2023/09/06 02:59:46;;;;;;;4.57;3.47;;;16.70;99.90;;;;;;5137578;27;20050;-74
2023/09/06 03:02:12;;;;;;;4.80;3.33;;;16.70;99.90;;;;;;5137886;27;20047;-73
2023/09/06 03:04:40;;;;;;;6.38;3.25;;;16.70;99.90;;;;;;5138232;27;20062;-73
2023/09/06 03:07:09;;;;;;;4.78;3.40;;;16.70;99.90;;;;;;5141141;27;20030;-73
2023/09/06 03:09:38;;;;;;;3.88;2.90;;;16.60;99.90;;;;;;5140618;27;20624;-73
2023/09/06 03:12:11;;;;;;;3.28;2.40;;;16.60;99.90;;;;;;5140283;27;20417;-73
2023/09/06 03:14:48;;;;;;;5.13;2.40;;;16.50;99.90;;;;;;5158993;27;20429;-73
2023/09/06 03:17:22;;;;;;;3.45;2.55;;;16.40;99.90;;;;;;5159090;27;20039;-73
2023/09/06 03:19:53;;;;;;;4.25;2.70;;;16.30;99.90;;;;;;5139892;27;20047;-73
2023/09/06 03:22:21;;;;;;;3.30;2.25;;;16.20;99.90;;;;;;5158481;27;20119;-73
2023/09/06 03:24:48;;;;;;;2.70;2.20;;;16.10;99.90;;;;;;5157846;27;20487;-73
2023/09/06 03:27:16;;;;;;;4.45;3.00;;;16.00;99.90;;;;;;5158368;27;20046;-73
2023/09/06 03:29:50;;;;;;;3.92;3.05;;;16.00;99.90;;;;;;5155649;27;20049;-73
2023/09/06 03:32:17;;;;;;;4.03;2.80;;;16.00;99.90;;;;;;5146508;27;20043;-72
2023/09/06 03:34:45;;;;;;;3.85;2.97;;;15.90;99.90;;;;;;5149073;27;20051;-73
2023/09/06 03:37:11;;;;;;;3.60;2.60;;;15.90;99.90;;;;;;5158036;27;20075;-73
2023/09/06 03:39:43;;;;;;;3.22;2.45;;;15.80;99.90;;;;;;5154763;27;20038;-73
2023/09/06 03:42:09;;;;;;;3.55;2.72;;;15.80;99.90;;;;;;5158795;27;20052;-72
2023/09/06 03:44:38;;;;;;;4.95;3.20;;;15.80;99.90;;;;;;5158733;27;20086;-72
2023/09/06 03:47:13;;;;;;;3.45;2.70;;;15.80;99.90;;;;;;5149919;27;20039;-72
2023/09/06 03:49:39;;;;;;;4.25;2.60;;;15.70;99.90;;;;;;5137407;27;20046;-73
2023/09/06 03:52:06;;;;;;;3.97;2.90;;;15.70;99.90;;;;;;5137023;27;20047;-72
2023/09/06 03:54:35;;;;;;;3.67;2.95;;;15.70;99.90;;;;;;5136712;27;20115;-72
2023/09/06 03:57:04;;;;;;;3.83;3.13;;;15.70;99.90;;;;;;5136319;27;20395;-73
2023/09/06 03:59:37;;;;;;;4.70;3.08;;;15.70;99.90;;;;;;5138177;27;20099;-72
2023/09/06 04:02:07;;;;;;;5.05;3.78;;;15.70;99.90;;;;;;5145695;27;20083;-73
2023/09/06 04:04:34;;;;;;;4.22;2.97;;;15.80;99.90;;;;;;5147863;27;20121;-72
2023/09/06 04:07:00;;;;;;;4.55;3.03;;;15.70;99.90;;;;;;5157640;27;20486;-73
2023/09/06 04:09:30;;;;;;;5.18;3.60;;;15.80;99.90;;;;;;5141596;27;20070;-73
2023/09/06 04:11:59;;;;;;;4.82;3.35;;;15.80;99.90;;;;;;5136966;27;20059;-73
2023/09/06 04:14:25;;;;;;;4.25;3.47;;;15.70;99.90;;;;;;5136942;27;20077;-73
2023/09/06 04:16:50;;;;;;;5.30;3.70;;;15.80;99.90;;;;;;5148646;27;20035;-72
2023/09/06 04:19:16;;;;;;;4.97;3.40;;;15.80;99.90;;;;;;5139683;27;20043;-72
2023/09/06 04:21:43;;;;;;;5.25;3.40;;;15.80;99.90;;;;;;5157051;27;20043;-72
2023/09/06 04:24:09;;;;;;;5.05;3.10;;;15.80;99.90;;;;;;5148815;27;20047;-73
2023/09/06 04:26:35;;;;;;;5.38;3.67;;;15.80;99.90;;;;;;5136267;27;20047;-73
2023/09/06 04:29:04;;;;;;;5.63;3.35;;;15.80;99.90;;;;;;5136565;27;20547;-73
2023/09/06 04:31:30;;;;;;;4.63;2.90;;;15.80;99.90;;;;;;5118570;27;20076;-72
2023/09/06 04:34:02;;;;;;;4.55;3.38;;;15.70;99.90;;;;;;5154986;27;20082;-72
2023/09/06 04:36:28;;;;;;;4.90;3.03;;;15.60;99.90;;;;;;5156448;27;20456;-73
2023/09/06 04:38:56;;;;;;;4.78;3.25;;;15.60;99.90;;;;;;5151078;27;20074;-73
2023/09/06 04:41:22;;;;;;;4.47;3.17;;;15.60;99.90;;;;;;5138407;27;20055;-73
2023/09/06 04:43:47;;;;;;;3.88;3.17;;;15.60;99.90;;;;;;5157724;27;20099;-73
2023/09/06 04:46:13;;;;;;;5.63;3.83;;;15.70;99.90;;;;;;5151707;27;20039;-73
2023/09/06 04:48:39;;;;;;;5.70;3.38;;;15.70;99.90;;;;;;5135539;27;20047;-73
2023/09/06 04:51:05;;;;;;;4.18;3.33;;;15.70;99.90;;;;;;5117026;27;20088;-73
2023/09/06 04:53:31;;;;;;;5.05;3.60;;;15.80;99.90;;;;;;5135769;27;20049;-73
2023/09/06 04:55:57;;;;;;;5.75;3.47;;;15.90;99.90;;;;;;5151159;27;20047;-73
2023/09/06 04:58:22;;;;;;;4.30;3.10;;;15.90;99.90;;;;;;5156690;27;20092;-73
2023/09/06 05:00:48;;;;;;;4.63;3.50;;;15.90;99.90;;;;;;5155955;27;20042;-72
2023/09/06 05:03:18;;;;;;;4.03;2.95;;;15.80;99.90;;;;;;5156839;27;20103;-72
2023/09/06 05:05:45;;;;;;;3.83;2.85;;;15.70;99.90;;;;;;5149618;27;20038;-72
2023/09/06 05:08:11;;;;;;;2.97;2.40;;;15.60;99.90;;;;;;5121258;27;20384;-73
2023/09/06 05:10:39;;;;;;;3.35;2.72;;;15.50;99.90;;;;;;5154928;27;20039;-73
2023/09/06 05:13:07;;;;;;;4.18;3.13;;;15.40;99.90;;;;;;5150661;27;20479;-73
2023/09/06 05:15:36;;;;;;;3.70;2.92;;;15.40;99.90;;;;;;5135103;27;20046;-73
2023/09/06 05:18:03;;;;;;;6.65;3.97;;;15.40;99.90;;;;;;5135444;27;20047;-73
2023/09/06 05:20:37;;;;;;;5.70;3.55;;;15.50;99.90;;;;;;5135289;27;20043;-73
2023/09/06 05:23:12;;;;;;;4.95;3.80;;;15.60;99.90;;;;;;5151820;27;20046;-72
2023/09/06 05:25:38;;;;;;;4.65;3.35;;;15.70;99.90;;;;;;5156127;27;20521;-74
2023/09/06 05:28:10;;;;;;;5.82;3.92;;;15.80;99.90;;;;;;5155964;27;20091;-74
2023/09/06 05:30:43;;;;;;;5.47;3.40;;;15.90;99.90;;;;;;5137011;27;20053;-73
2023/09/06 05:33:09;;;;;;;4.35;3.40;;;16.00;99.90;;;;;;5156139;27;20038;-73
2023/09/06 05:35:36;;;;;;;5.03;3.45;;;16.10;99.90;;;;;;5155720;27;20051;-73
2023/09/06 05:38:03;;;;;;;4.82;3.30;;;16.10;99.90;;;;;;5148572;27;20042;-73
2023/09/06 05:40:30;;;;;;;5.13;3.47;;;16.20;99.90;;;;;;5154269;27;20047;-73
2023/09/06 05:42:56;;;;;;;4.55;3.20;;;16.30;99.90;;;;;;5136690;27;20471;-73
2023/09/06 05:45:22;;;;;;;4.35;3.40;;;16.30;99.90;;;;;;5155502;27;20047;-73
2023/09/06 05:47:49;;;;;;;4.55;3.10;;;16.30;99.90;;;;;;5155654;27;20038;-74
2023/09/06 05:50:15;;;;;;;4.18;3.20;;;16.30;99.90;;;;;;5155097;27;20042;-74
2023/09/06 05:52:40;;;;;;;4.35;3.50;;;16.30;99.90;;;;;;5155225;27;20051;-73
2023/09/06 05:55:06;;;;;;;4.68;3.50;;;16.30;99.90;;;;;;5155623;27;20497;-74
2023/09/06 05:57:32;;;;;;;4.82;3.75;;;16.40;99.90;;;;;;5155472;27;20047;-74
2023/09/06 05:59:59;;;;;;;4.53;3.35;;;16.50;99.90;;;;;;5154977;27;20043;-73
2023/09/06 06:02:24;;;;;;;4.70;3.45;;;16.60;99.90;;;;;;5155319;27;20469;-74
2023/09/06 06:04:50;;;;;;;4.35;3.35;;;16.60;99.90;;;;;;5155362;27;20093;-73
2023/09/06 06:07:17;;;;;;;3.65;2.90;;;16.70;99.90;;;;;;5119986;27;20086;-74
2023/09/06 06:09:43;;;;;;;5.15;3.45;;;16.80;99.90;;;;;;5155448;27;20047;-74
2023/09/06 06:12:10;;;;;;;4.85;3.25;;;16.90;99.90;;;;;;5155330;27;20061;-74
2023/09/06 06:14:36;;;;;;;4.03;3.30;;;16.90;99.90;;;;;;5135889;27;20122;-73
2023/09/06 06:17:05;;;;;;;4.03;3.00;;;17.00;99.90;;;;;;5134372;27;20103;-67
2023/09/06 06:19:35;;;;;;;4.68;3.00;;;17.10;99.90;;;;;;5134407;27;20499;-67
2023/09/06 06:22:02;;;;;;;5.57;2.95;;;17.10;99.90;;;;;;5133932;27;20430;-67
2023/09/06 06:24:29;;;;;;;4.80;3.38;;;17.20;99.90;;;;;;5134006;27;20047;-67
2023/09/06 06:26:55;;;;;;;5.18;4.05;;;17.30;99.90;;;;;;5134185;27;20050;-67
2023/09/06 06:29:22;;;;;;;4.80;3.38;;;17.40;99.90;;;;;;5133329;27;20122;-67
2023/09/06 06:31:48;;;;;;;5.65;3.65;;;17.50;99.90;;;;;;5134317;28;20051;-67
2023/09/06 06:34:14;;;;;;;4.53;3.40;;;17.60;99.90;;;;;;5134179;28;20092;-67
2023/09/06 06:36:41;;;;;;;5.18;3.72;;;17.70;99.90;;;;;;5134120;28;20043;-67
2023/09/06 06:39:07;;;;;;;5.35;3.28;;;17.80;99.90;;;;;;5150606;27;20081;-67
2023/09/06 06:41:32;;;;;;;5.03;3.60;;;17.90;99.90;;;;;;5136568;27;20123;-67
2023/09/06 06:43:58;;;;;;;4.18;3.28;;;18.00;99.90;;;;;;5155001;27;20092;-67
2023/09/06 06:46:24;;;;;;;4.20;3.60;;;18.10;99.90;;;;;;5136672;27;20042;-67
2023/09/06 06:48:50;;;;;;;6.03;3.70;;;18.20;99.90;;;;;;5154842;27;20475;-67
2023/09/06 06:51:15;;;;;;;4.70;3.78;;;18.40;99.90;;;;;;5154765;27;20050;-67
2023/09/06 06:53:41;;;;;;;4.40;3.53;;;18.50;99.90;;;;;;5154825;27;20046;-67
2023/09/06 06:56:06;;;;;;;5.53;3.75;;;18.60;99.90;;;;;;5154380;27;20555;-67
2023/09/06 06:58:32;;;;;;;5.30;4.15;;;18.70;99.90;;;;;;5136591;27;20502;-66
2023/09/06 07:01:00;;;;;;;4.38;3.70;;;18.80;99.90;;;;;;5154340;27;20129;-66
2023/09/06 07:03:26;;;;;;;5.55;3.75;;;18.90;99.90;;;;;;5151365;27;20047;-67
2023/09/06 07:05:52;;;;;;;5.03;3.35;;;19.00;99.90;;;;;;5135710;27;20108;-67
2023/09/06 07:08:18;;;;;;;4.90;3.53;;;19.10;99.90;;;;;;5131725;27;20048;-67
2023/09/06 07:10:43;;;;;;;5.35;3.83;;;19.30;99.90;;;;;;5147985;27;20080;-69
2023/09/06 07:13:09;;;;;;;4.55;3.50;;;19.30;99.90;;;;;;5146583;27;20051;-67
2023/09/06 07:15:35;;;;;;;4.57;3.65;;;19.40;99.90;;;;;;5147259;27;20391;-66
2023/09/06 07:18:04;;;;;;;5.30;3.80;;;19.50;99.90;;;;;;5144105;27;20150;-66
2023/09/06 07:20:30;;;;;;;4.50;3.65;;;19.60;99.90;;;;;;5126306;27;20051;-66
2023/09/06 07:22:56;;;;;;;6.28;3.80;;;19.70;99.90;;;;;;5141458;27;20493;-65
2023/09/06 07:25:21;;;;;;;4.78;3.60;;;19.80;99.90;;;;;;5135226;27;20518;-65
2023/09/06 07:27:47;;;;;;;4.68;3.78;;;20.00;99.90;;;;;;5146139;27;20407;-65
2023/09/06 07:30:13;;;;;;;4.53;3.40;;;20.10;99.90;;;;;;5147741;27;20047;-66
2023/09/06 07:32:38;;;;;;;4.55;3.30;;;20.20;99.90;;;;;;5151600;27;20474;-66
2023/09/06 07:35:06;;;;;;;6.07;3.40;;;20.30;99.90;;;;;;5153725;27;20043;-66
2023/09/06 07:37:31;;;;;;;4.07;3.20;;;20.50;99.90;;;;;;5156553;27;20055;-66
2023/09/06 07:40:01;;;;;;;4.45;3.28;;;20.60;99.90;;;;;;5156879;27;20156;-66
2023/09/06 07:42:27;;;;;;;4.00;3.05;;;20.70;99.90;;;;;;5156774;27;20042;-66
2023/09/06 07:44:53;;;;;;;5.15;3.08;;;20.90;99.90;;;;;;5156698;27;20046;-65
2023/09/06 07:47:19;;;;;;;4.82;2.70;;;21.00;99.90;;;;;;5156576;27;20090;-66
2023/09/06 07:49:44;;;;;;;4.28;2.78;;;21.10;99.90;;;;;;5156877;27;20126;-67
2023/09/06 07:52:11;;;;;;;4.38;2.60;;;21.30;99.90;;;;;;5157008;27;20047;-66
2023/09/06 07:54:37;;;;;;;5.07;2.75;;;21.40;99.90;;;;;;5137685;27;20046;-66
2023/09/06 07:57:04;;;;;;;3.92;2.50;;;21.50;99.90;;;;;;5156889;27;20054;-65
2023/09/06 07:59:30;;;;;;;3.63;2.60;;;21.70;99.90;;;;;;5138260;27;20046;-66
2023/09/06 08:01:55;;;;;;;3.20;2.28;;;21.80;99.90;;;;;;5156452;27;20402;-65
2023/09/06 08:04:21;;;;;;;2.70;2.05;;;21.90;99.90;;;;;;5108660;27;20047;-66
2023/09/06 08:06:47;;;;;;;3.83;1.90;;;22.00;99.90;;;;;;5154799;27;20087;-66
2023/09/06 08:09:13;;;;;;;3.22;1.98;;;22.10;99.90;;;;;;5156623;27;20049;-66
2023/09/06 08:11:39;;;;;;;2.47;1.77;;;22.20;99.90;;;;;;5156382;27;20042;-66
2023/09/06 08:14:05;;;;;;;2.60;1.90;;;22.30;99.90;;;;;;5153622;27;20490;-66
2023/09/06 08:16:31;;;;;;;2.65;1.85;;;22.50;99.90;;;;;;5137737;27;20046;-66
2023/09/06 08:18:57;;;;;;;3.63;1.98;;;22.60;99.90;;;;;;5156360;27;20051;-67
2023/09/06 08:21:22;;;;;;;2.67;1.77;;;22.80;99.90;;;;;;5156010;27;20440;-66
2023/09/06 08:23:48;;;;;;;2.80;2.00;;;22.90;99.90;;;;;;5136810;27;20063;-66
2023/09/06 08:26:14;;;;;;;4.20;2.17;;;23.00;99.90;;;;;;5155740;27;20095;-66
2023/09/06 08:28:40;;;;;;;2.72;1.77;;;23.10;99.90;;;;;;5156601;27;20121;-66
2023/09/06 08:31:06;;;;;;;3.17;1.92;;;23.20;99.90;;;;;;5155207;27;20047;-67
2023/09/06 08:33:33;;;;;;;2.65;1.80;;;23.30;99.90;;;;;;5156235;27;20035;-66
2023/09/06 08:35:58;;;;;;;4.30;1.73;;;23.40;99.90;;;;;;5156048;27;20498;-66
2023/09/06 08:38:24;;;;;;;2.53;1.52;;;23.50;99.90;;;;;;5156425;27;20043;-66
2023/09/06 08:40:50;;;;;;;3.53;1.63;;;23.60;99.90;;;;;;5155893;27;20048;-67
2023/09/06 08:43:19;;;;;;;3.10;1.98;;;23.70;99.90;;;;;;5156566;27;20053;-66
2023/09/06 08:45:48;;;;;;;2.28;1.60;;;23.90;99.90;;;;;;5137349;27;20046;-66
2023/09/06 08:48:14;;;;;;;3.15;1.67;;;24.00;99.90;;;;;;5155658;27;20035;-65
2023/09/06 08:50:40;;;;;;;3.45;1.70;;;24.10;99.90;;;;;;5156069;27;20059;-65
2023/09/06 08:53:10;;;;;;;3.17;1.95;;;24.30;99.90;;;;;;5155512;27;20409;-65
2023/09/06 08:55:37;;;;;;;2.85;1.80;;;24.40;99.90;;;;;;5155270;27;20095;-67
2023/09/06 08:58:03;;;;;;;3.38;1.83;;;24.50;99.90;;;;;;5155919;27;20114;-65
2023/09/06 09:00:30;;;;;;;2.60;1.70;;;24.70;99.90;;;;;;5154491;27;20099;-66
2023/09/06 09:02:57;;;;;;;2.70;1.80;;;24.70;99.90;;;;;;5155172;27;20042;-67
2023/09/06 09:05:23;;;;;;;2.40;1.88;;;24.90;99.90;;;;;;5134917;27;20480;-66
2023/09/06 09:07:59;;;;;;;2.40;1.60;;;24.90;99.90;;;;;;5128197;27;20041;-66
2023/09/06 09:10:28;;;;;;;2.63;1.45;;;25.00;99.90;;;;;;5155195;27;20406;-69
2023/09/06 09:12:56;;;;;;;3.05;1.90;;;25.10;99.90;;;;;;5150738;27;20067;-65
2023/09/06 09:15:25;;;;;;;2.45;1.33;;;25.20;99.90;;;;;;5154229;27;20376;-65
2023/09/06 09:17:51;;;;;;;2.70;1.35;;;25.30;99.90;;;;;;5155489;27;20038;-66
2023/09/06 09:20:18;;;;;;;2.85;1.55;;;25.40;99.90;;;;;;5155321;27;20054;-65
2023/09/06 09:22:45;;;;;;;2.45;1.60;;;25.40;99.90;;;;;;5136574;27;20046;-65
2023/09/06 09:25:14;;;;;;;3.20;1.73;;;25.50;99.90;;;;;;5154364;27;20551;-66
2023/09/06 09:27:42;;;;;;;2.88;1.65;;;25.60;99.90;;;;;;5154327;27;20034;-65
2023/09/06 09:30:10;;;;;;;2.45;1.30;;;25.80;99.90;;;;;;5154312;27;20072;-66
2023/09/06 09:32:37;;;;;;;2.42;1.50;;;26.00;99.90;;;;;;5136541;27;20387;-65
2023/09/06 09:35:04;;;;;;;2.90;1.80;;;26.10;99.90;;;;;;5155018;27;20487;-65
2023/09/06 09:37:30;;;;;;;2.45;1.67;;;26.20;99.90;;;;;;5153649;27;20168;-65
2023/09/06 09:39:56;;;;;;;2.47;1.42;;;26.30;99.90;;;;;;5154643;27;20121;-65
2023/09/06 09:42:22;;;;;;;2.65;1.70;;;26.40;99.90;;;;;;5155165;27;20422;-65
2023/09/06 09:45:01;;;;;;;3.10;1.80;;;26.40;99.90;;;;;;5154392;27;20133;-66
2023/09/06 09:47:28;;;;;;;2.88;1.80;;;26.50;99.90;;;;;;5154720;27;20035;-65
2023/09/06 09:49:55;;;;;;;2.50;1.60;;;26.60;99.90;;;;;;5154723;27;20055;-65
2023/09/06 09:52:24;;;;;;;4.80;2.05;;;26.70;99.90;;;;;;5154459;27;20126;-67
2023/09/06 09:54:51;;;;;;;2.10;1.35;;;26.80;99.90;;;;;;5154576;27;20042;-66
2023/09/06 09:57:21;;;;;;;2.72;1.63;;;26.90;99.90;;;;;;5153420;27;20042;-66
2023/09/06 09:59:49;;;;;;;3.30;1.60;;;27.10;99.90;;;;;;5136626;27;20562;-67
2023/09/06 10:02:16;;;;;;;3.05;1.65;;;27.20;99.90;;;;;;5154111;27;20042;-67
2023/09/06 10:04:43;;;;;;;3.10;1.65;;;27.30;99.90;;;;;;5154545;27;20057;-66
2023/09/06 10:07:11;;;;;;;2.75;1.65;;;27.40;99.90;;;;;;5136156;27;20380;-65
2023/09/06 10:09:42;;;;;;;2.88;1.60;;;27.50;99.90;;;;;;5153990;27;20050;-65
2023/09/06 10:12:10;;;;;;;2.70;1.50;;;27.50;99.90;;;;;;5136479;27;20051;-65
2023/09/06 10:14:39;;;;;;;2.40;1.50;;;27.60;99.90;;;;;;5144684;27;20046;-65
2023/09/06 10:17:07;;;;;;;3.50;1.40;;;27.70;99.90;;;;;;5153989;27;20038;-65
2023/09/06 10:19:33;;;;;;;4.13;1.80;;;27.80;99.90;;;;;;5154130;27;20487;-65
2023/09/06 10:22:01;;;;;;;4.55;1.83;;;27.90;99.90;;;;;;5127816;27;20107;-65
2023/09/06 10:24:32;;;;;;;3.17;1.50;;;28.00;99.90;;;;;;5154460;27;20563;-65
2023/09/06 10:26:58;;;;;;;2.35;1.40;;;28.10;99.90;;;;;;5154180;27;20052;-65
2023/09/06 10:29:25;;;;;;;2.55;1.40;;;28.20;99.90;;;;;;5154019;27;20113;-65
2023/09/06 10:31:52;;;;;;;2.28;1.40;;;28.40;99.90;;;;;;5153205;27;20043;-65
2023/09/06 10:34:19;;;;;;;3.08;1.55;;;28.60;99.90;;;;;;5154479;27;20047;-66
2023/09/06 10:36:52;;;;;;;2.17;1.30;;;28.70;99.90;;;;;;5153561;27;20103;-68
2023/09/06 10:39:21;;;;;;;2.55;1.50;;;28.80;99.90;;;;;;5151269;27;20117;-67
2023/09/06 10:42:11;;;;;;;2.13;1.13;;;29.00;99.90;;;;;;5153764;27;20046;-66
2023/09/06 10:44:55;;;;;;;2.28;1.42;;;29.10;99.90;;;;;;5148645;27;20050;-66
2023/09/06 10:47:31;;;;;;;2.47;1.50;;;29.10;99.90;;;;;;5133407;27;20039;-66
2023/09/06 10:50:20;;;;;;;2.88;1.40;;;29.20;99.90;;;;;;5132446;27;20092;-65
2023/09/06 10:52:57;;;;;;;2.30;1.40;;;29.20;99.90;;;;;;5133767;27;20100;-66
2023/09/06 10:55:27;;;;;;;2.50;1.50;;;29.30;99.90;;;;;;5132360;27;20514;-67
2023/09/06 10:58:06;;;;;;;2.55;1.70;;;29.40;99.90;;;;;;5133496;27;20047;-66
2023/09/06 11:00:34;;;;;;;2.53;1.17;;;29.40;99.90;;;;;;5133058;27;20043;-66
2023/09/06 11:03:13;;;;;;;2.78;1.48;;;29.40;99.90;;;;;;5134497;27;20050;-67
2023/09/06 11:05:42;;;;;;;2.13;1.38;;;29.40;99.90;;;;;;5129875;28;20047;-66
2023/09/06 11:08:09;;;;;;;2.83;1.42;;;29.40;99.90;;;;;;5133708;27;20497;-65
2023/09/06 11:10:36;;;;;;;1.95;1.35;;;29.40;99.90;;;;;;5133500;27;20107;-66
2023/09/06 11:13:10;;;;;;;2.50;1.38;;;29.30;99.90;;;;;;5142682;27;20053;-65
2023/09/06 11:15:36;;;;;;;2.63;1.38;;;29.30;99.90;;;;;;5118925;27;20491;-65
2023/09/06 11:18:03;;;;;;;3.08;1.50;;;29.20;99.90;;;;;;5136822;27;20391;-66
2023/09/06 11:20:31;;;;;;;2.25;1.48;;;29.10;99.90;;;;;;5136848;27;20054;-65
2023/09/06 11:22:58;;;;;;;2.40;1.50;;;29.00;99.90;;;;;;5126255;27;20126;-65
2023/09/06 11:25:26;;;;;;;5.15;1.65;;;29.00;99.90;;;;;;5119925;27;20047;-66
2023/09/06 11:27:55;;;;;;;2.35;1.40;;;28.90;99.90;;;;;;5136407;27;20418;-65
2023/09/06 11:30:22;;;;;;;3.78;1.50;;;28.80;99.90;;;;;;5136328;27;20103;-65
2023/09/06 11:32:49;;;;;;;2.40;1.40;;;28.80;99.90;;;;;;5143167;27;20074;-65
2023/09/06 11:35:15;;;;;;;3.92;1.98;;;28.70;99.90;;;;;;5136540;27;20403;-65
2023/09/06 11:37:46;;;;;;;3.75;1.40;;;28.70;99.90;;;;;;5136018;27;20027;-65
2023/09/06 11:40:15;;;;;;;3.13;1.63;;;28.70;99.90;;;;;;5136492;27;20104;-67
2023/09/06 11:42:47;;;;;;;2.10;1.48;;;28.70;99.90;;;;;;5136813;27;20043;-65
2023/09/06 11:45:17;;;;;;;2.65;1.40;;;28.70;99.90;;;;;;5137083;27;20057;-65
2023/09/06 11:47:46;;;;;;;2.72;1.45;;;28.70;99.90;;;;;;5136747;27;20114;-65
2023/09/06 11:50:18;;;;;;;2.15;1.30;;;28.70;99.90;;;;;;5136169;27;20499;-65
2023/09/06 11:52:53;;;;;;;2.40;1.30;;;28.70;99.90;;;;;;5136937;27;20043;-67
2023/09/06 11:55:21;;;;;;;2.10;1.20;;;28.70;99.90;;;;;;5136482;27;20499;-65
2023/09/06 11:57:57;;;;;;;2.35;1.52;;;28.70;99.90;;;;;;5135904;27;20436;-65
2023/09/06 12:00:42;;;;;;;2.83;1.60;;;28.70;99.90;;;;;;5134656;27;20139;-66
2023/09/06 12:03:20;;;;;;;2.30;1.20;;;28.70;99.90;;;;;;5138522;27;20116;-65
2023/09/06 12:05:54;;;;;;;2.60;1.55;;;28.80;99.90;;;;;;5136298;27;20043;-65
2023/09/06 12:08:22;;;;;;;2.67;1.63;;;28.70;99.90;;;;;;5141959;27;20039;-65
2023/09/06 12:10:52;;;;;;;2.97;1.40;;;28.70;99.90;;;;;;5141857;27;20038;-66
2023/09/06 12:13:29;;;;;;;2.15;1.45;;;28.70;99.90;;;;;;5143562;27;20168;-65
2023/09/06 12:15:58;;;;;;;2.35;1.30;;;28.70;99.90;;;;;;5117999;27;20099;-66
2023/09/06 12:18:28;;;;;;;2.13;1.30;;;28.70;99.90;;;;;;5136022;27;20051;-66
2023/09/06 12:20:57;;;;;;;2.20;1.42;;;28.70;99.90;;;;;;5135472;27;20043;-66
2023/09/06 12:23:26;;;;;;;1.70;1.15;;;28.80;99.90;;;;;;5117329;27;20417;-67
2023/09/06 12:25:52;;;;;;;2.00;1.20;;;28.80;99.90;;;;;;5117630;27;20558;-65
2023/09/06 12:28:18;;;;;;;2.53;1.30;;;28.80;99.90;;;;;;5134900;27;20043;-66
2023/09/06 12:30:45;;;;;;;1.83;1.30;;;28.80;99.90;;;;;;5120559;27;20563;-65
2023/09/06 12:33:13;;;;;;;3.42;1.50;;;28.90;99.90;;;;;;5142260;27;20047;-66
2023/09/06 12:35:40;;;;;;;3.25;1.38;;;28.90;99.90;;;;;;5135396;27;20047;-67
2023/09/06 12:38:06;;;;;;;3.45;1.35;;;28.90;99.90;;;;;;5138473;27;20051;-67
2023/09/06 12:40:33;;;;;;;2.38;1.45;;;29.00;99.90;;;;;;5135288;27;20043;-66
2023/09/06 12:42:59;;;;;;;2.30;1.40;;;29.10;99.90;;;;;;5130123;27;20055;-67
2023/09/06 12:45:30;;;;;;;2.08;1.38;;;29.40;99.90;;;;;;5143826;27;20467;-67
2023/09/06 12:47:57;;;;;;;2.95;1.42;;;30.10;99.90;;;;;;5136955;27;20050;-66
2023/09/06 12:50:23;;;;;;;1.70;1.02;;;30.50;99.90;;;;;;5134804;27;20507;-66
2023/09/06 12:52:50;;;;;;;3.08;1.30;;;30.40;99.90;;;;;;5135610;27;20047;-67